Time;durP1;ratioP1;P1;durP2;ratioP2;P2;SDS_P1;SDS_P2;PMS_P1;PMS_P2;Temp;Humidity;BMP_temperature;BMP_pressure;BME280_temperature;BME280_humidity;BME280_pressure;Samples;Min_cycle;Max_cycle;Signal;HPM_P1;HPM_P2
2023/01/07 00:00:19;;;;;;;10.27;4.53;;;;;;;;;;2114762;28;20078;-47
2023/01/07 00:01:21;;;;;;;11.30;5.28;;;;;;;;;;2114763;28;20043;-45
2023/01/07 00:02:22;;;;;;;11.73;5.47;;;;;;;;;;2114794;28;20043;-45
2023/01/07 00:03:23;;;;;;;10.10;5.18;;;;;;;;;;2114686;28;20979;-45
2023/01/07 00:04:25;;;;;;;11.45;5.13;;;;;;;;;;2114897;28;20066;-45
2023/01/07 00:05:25;;;;;;;13.07;5.55;;;;;;;;;;2114752;28;20463;-46
2023/01/07 00:06:27;;;;;;;10.43;5.00;;;;;;;;;;2114950;28;20086;-46
2023/01/07 00:07:28;;;;;;;;;;;;;;;;;;2115180;28;20039;-47
2023/01/07 00:08:29;;;;;;;11.75;5.10;;;;;;;;;;2114806;28;19966;-46
2023/01/07 00:09:30;;;;;;;15.80;5.15;;;;;;;;;;2114700;28;20050;-46
2023/01/07 00:10:33;;;;;;;9.20;4.70;;;;;;;;;;2114975;28;20043;-45
2023/01/07 00:11:34;;;;;;;10.98;5.00;;;;;;;;;;2114701;28;20064;-47
2023/01/07 00:12:35;;;;;;;14.55;5.05;;;;;;;;;;2114282;28;20052;-43
2023/01/07 00:13:38;;;;;;;13.20;5.47;;;;;;;;;;2123367;28;20046;-43
2023/01/07 00:14:40;;;;;;;13.07;4.97;;;;;;;;;;2115366;28;20427;-46
2023/01/07 00:15:40;;;;;;;;;;;;;;;;;;2115108;28;20055;-48
2023/01/07 00:16:42;;;;;;;10.05;4.93;;;;;;;;;;2114696;28;20014;-46
2023/01/07 00:17:43;;;;;;;10.63;4.28;;;;;;;;;;2114858;28;20046;-47
2023/01/07 00:18:44;;;;;;;9.95;4.63;;;;;;;;;;2114542;28;20081;-46
2023/01/07 00:19:45;;;;;;;13.25;5.45;;;;;;;;;;2114815;28;20047;-46
2023/01/07 00:20:46;;;;;;;11.75;5.28;;;;;;;;;;2114796;28;20092;-46
2023/01/07 00:21:47;;;;;;;12.23;5.40;;;;;;;;;;2114664;28;20488;-43
2023/01/07 00:22:49;;;;;;;10.35;4.75;;;;;;;;;;2114764;28;20093;-43
2023/01/07 00:23:52;;;;;;;10.77;5.65;;;;;;;;;;2114807;28;20116;-43
2023/01/07 00:24:53;;;;;;;11.45;5.30;;;;;;;;;;2114682;28;20401;-42
2023/01/07 00:25:58;;;;;;;11.23;5.33;;;;;;;;;;2114809;28;20054;-42
2023/01/07 00:27:00;;;;;;;11.75;5.70;;;;;;;;;;2114793;28;20082;-42
2023/01/07 00:28:00;;;;;;;10.57;5.13;;;;;;;;;;2114763;28;20047;-43
2023/01/07 00:29:02;;;;;;;11.00;5.47;;;;;;;;;;2114815;28;20071;-42
2023/01/07 00:30:05;;;;;;;10.15;4.63;;;;;;;;;;2114661;28;20054;-42
2023/01/07 00:31:07;;;;;;;13.20;5.45;;;;;;;;;;2114495;28;20511;-42
2023/01/07 00:32:07;;;;;;;14.07;4.97;;;;;;;;;;2114373;28;20056;-42
2023/01/07 00:33:13;;;;;;;9.20;4.73;;;;;;;;;;2114633;28;20132;-42
2023/01/07 00:34:15;;;;;;;14.18;4.90;;;;;;;;;;2114634;28;20500;-42
2023/01/07 00:35:22;;;;;;;12.18;4.60;;;;;;;;;;2114765;28;20437;-42
2023/01/07 00:36:24;;;;;;;10.90;4.55;;;;;;;;;;2114464;28;20056;-43
2023/01/07 00:38:45;;;;;;;9.93;5.03;;;;;;;;;;2114599;28;20431;-42
2023/01/07 00:39:46;;;;;;;13.32;5.72;;;;;;;;;;2114485;28;20487;-42
2023/01/07 00:40:47;;;;;;;11.45;5.18;;;;;;;;;;2114562;28;20051;-42
2023/01/07 00:43:04;;;;;;;10.60;4.28;;;;;;;;;;2113622;28;20516;-42
2023/01/07 00:44:05;;;;;;;8.15;4.65;;;;;;;;;;2114664;28;20070;-43
2023/01/07 00:45:09;;;;;;;12.55;4.95;;;;;;;;;;2114494;28;20044;-43
2023/01/07 00:46:11;;;;;;;12.65;4.45;;;;;;;;;;2114356;28;20430;-43
2023/01/07 00:47:12;;;;;;;9.80;4.25;;;;;;;;;;2114523;28;20047;-43
2023/01/07 00:48:13;;;;;;;9.10;4.35;;;;;;;;;;2114847;28;20051;-47
2023/01/07 00:49:15;;;;;;;12.18;5.38;;;;;;;;;;2114665;28;20425;-46
2023/01/07 00:50:16;;;;;;;10.95;5.03;;;;;;;;;;2114501;28;20073;-46
2023/01/07 00:51:17;;;;;;;12.57;5.03;;;;;;;;;;2114563;28;20055;-47
2023/01/07 00:52:18;;;;;;;14.73;5.35;;;;;;;;;;2114717;28;20134;-45
2023/01/07 00:53:20;;;;;;;11.45;5.13;;;;;;;;;;2114601;28;20525;-45
2023/01/07 00:54:21;;;;;;;10.10;5.28;;;;;;;;;;2114444;28;20385;-45
2023/01/07 00:55:22;;;;;;;10.63;5.33;;;;;;;;;;2114461;28;20146;-46
2023/01/07 00:56:23;;;;;;;12.57;5.35;;;;;;;;;;2114377;28;20484;-46
2023/01/07 00:57:24;;;;;;;11.55;5.43;;;;;;;;;;2114424;28;20056;-48
2023/01/07 00:58:25;;;;;;;8.18;4.45;;;;;;;;;;2114705;28;20052;-46
2023/01/07 00:59:26;;;;;;;10.93;4.63;;;;;;;;;;2114469;28;20074;-46
2023/01/07 01:00:28;;;;;;;9.27;4.45;;;;;;;;;;2114932;28;20047;-45
2023/01/07 01:01:29;;;;;;;12.88;5.25;;;;;;;;;;2114345;28;20044;-46
2023/01/07 01:02:30;;;;;;;14.45;5.65;;;;;;;;;;2114490;28;20048;-47
2023/01/07 01:03:32;;;;;;;13.50;5.73;;;;;;;;;;2114356;28;20480;-46
2023/01/07 01:04:33;;;;;;;10.25;5.22;;;;;;;;;;2114343;28;20292;-46
2023/01/07 01:05:34;;;;;;;11.05;5.32;;;;;;;;;;2114428;28;20060;-46
2023/01/07 01:06:35;;;;;;;14.40;4.97;;;;;;;;;;2114386;28;20053;-46
2023/01/07 01:07:37;;;;;;;13.00;5.20;;;;;;;;;;2114419;28;20044;-46
2023/01/07 01:08:39;;;;;;;11.90;5.68;;;;;;;;;;2114574;28;20040;-46
2023/01/07 01:09:40;;;;;;;11.50;5.65;;;;;;;;;;2114133;28;20610;-46
2023/01/07 01:10:42;;;;;;;21.30;5.70;;;;;;;;;;2114426;28;20036;-45
2023/01/07 01:11:43;;;;;;;10.15;5.25;;;;;;;;;;2114249;28;20476;-46
2023/01/07 01:12:44;;;;;;;8.48;4.35;;;;;;;;;;2114329;28;20055;-45
2023/01/07 01:13:46;;;;;;;12.07;5.13;;;;;;;;;;2114172;28;20051;-45
2023/01/07 01:14:47;;;;;;;11.93;5.05;;;;;;;;;;2114326;28;20119;-45
2023/01/07 01:15:49;;;;;;;10.85;5.47;;;;;;;;;;2114328;28;20082;-45
2023/01/07 01:16:49;;;;;;;;;;;;;;;;;;2114632;28;20051;-45
2023/01/07 01:17:51;;;;;;;10.35;4.15;;;;;;;;;;2114362;28;20356;-46
2023/01/07 01:18:51;;;;;;;12.52;4.78;;;;;;;;;;2114324;28;20507;-46
2023/01/07 01:19:53;;;;;;;12.35;4.82;;;;;;;;;;2114315;28;20067;-47
2023/01/07 01:20:54;;;;;;;11.82;4.78;;;;;;;;;;2114417;28;20047;-46
2023/01/07 01:21:55;;;;;;;11.52;4.82;;;;;;;;;;2114215;28;20511;-45
2023/01/07 01:22:56;;;;;;;10.70;4.43;;;;;;;;;;2114127;28;20047;-45
2023/01/07 01:23:57;;;;;;;10.57;4.33;;;;;;;;;;2114299;28;20054;-47
2023/01/07 01:24:58;;;;;;;11.02;4.38;;;;;;;;;;2114338;28;20055;-46
2023/01/07 01:26:03;;;;;;;9.20;4.83;;;;;;;;;;2113988;28;20155;-46
2023/01/07 01:27:04;;;;;;;12.02;4.82;;;;;;;;;;2114333;28;20055;-47
2023/01/07 01:28:06;;;;;;;7.70;4.17;;;;;;;;;;2114259;28;20524;-46
2023/01/07 01:29:07;;;;;;;;;;;;;;;;;;2114632;28;20048;-46
2023/01/07 01:30:09;;;;;;;12.18;4.43;;;;;;;;;;2114260;28;20006;-46
2023/01/07 01:31:11;;;;;;;13.38;4.20;;;;;;;;;;2113660;28;20056;-46
2023/01/07 01:32:12;;;;;;;;;;;;;;;;;;2114567;28;20179;-45
2023/01/07 01:33:13;;;;;;;7.32;4.05;;;;;;;;;;2114232;28;19926;-46
2023/01/07 01:34:14;;;;;;;11.00;4.77;;;;;;;;;;2114646;28;20078;-45
2023/01/07 01:35:15;;;;;;;11.35;4.38;;;;;;;;;;2114149;28;20446;-45
2023/01/07 01:36:16;;;;;;;8.87;3.93;;;;;;;;;;2114221;28;20130;-46
2023/01/07 01:37:17;;;;;;;11.25;4.45;;;;;;;;;;2114160;28;20345;-45
2023/01/07 01:38:18;;;;;;;10.20;4.43;;;;;;;;;;2114364;28;20048;-46
2023/01/07 01:39:19;;;;;;;8.35;4.05;;;;;;;;;;2114141;28;20446;-46
2023/01/07 01:40:21;;;;;;;8.82;4.65;;;;;;;;;;2114334;28;20109;-46
2023/01/07 01:41:22;;;;;;;9.75;4.47;;;;;;;;;;2114037;28;20507;-45
2023/01/07 01:42:24;;;;;;;8.77;4.30;;;;;;;;;;2114258;28;20050;-46
2023/01/07 01:43:26;;;;;;;8.93;4.40;;;;;;;;;;2114195;28;20108;-47
2023/01/07 01:44:27;;;;;;;;;;;;;;;;;;2114657;28;20043;-46
2023/01/07 01:45:28;;;;;;;10.07;4.32;;;;;;;;;;2114211;28;19919;-46
2023/01/07 01:46:33;;;;;;;9.63;4.30;;;;;;;;;;2114037;28;20499;-46
2023/01/07 01:47:36;;;;;;;8.93;3.65;;;;;;;;;;2114023;28;20423;-47
2023/01/07 01:48:38;;;;;;;9.82;4.82;;;;;;;;;;2114124;28;20043;-45
2023/01/07 01:49:43;;;;;;;9.98;4.75;;;;;;;;;;2114225;28;20096;-45
2023/01/07 01:50:45;;;;;;;9.15;4.45;;;;;;;;;;2113996;28;20062;-46
2023/01/07 01:51:50;;;;;;;8.18;3.72;;;;;;;;;;2114009;28;20044;-46
2023/01/07 01:52:54;;;;;;;8.30;4.22;;;;;;;;;;2114124;28;20044;-45
2023/01/07 01:53:55;;;;;;;8.18;4.03;;;;;;;;;;2114161;28;20051;-45
2023/01/07 01:54:59;;;;;;;10.05;5.25;;;;;;;;;;2114138;28;20039;-46
2023/01/07 01:56:01;;;;;;;9.57;4.30;;;;;;;;;;2113984;28;20044;-48
2023/01/07 01:57:05;;;;;;;11.05;4.53;;;;;;;;;;2114124;28;20043;-47
2023/01/07 01:58:08;;;;;;;8.93;4.32;;;;;;;;;;2114011;28;20092;-46
2023/01/07 01:59:10;;;;;;;9.10;4.45;;;;;;;;;;2114034;28;20048;-46
2023/01/07 02:00:12;;;;;;;12.20;3.97;;;;;;;;;;2114306;28;20408;-45
2023/01/07 02:01:13;;;;;;;8.23;3.83;;;;;;;;;;2114110;28;20044;-46
2023/01/07 02:02:17;;;;;;;7.95;3.60;;;;;;;;;;2113934;28;20055;-46
2023/01/07 02:03:20;;;;;;;8.95;4.53;;;;;;;;;;2114088;28;20048;-47
2023/01/07 02:04:22;;;;;;;9.27;4.53;;;;;;;;;;2114074;28;20043;-46
2023/01/07 02:05:24;;;;;;;9.25;4.38;;;;;;;;;;2113922;28;20044;-47
2023/01/07 02:06:25;;;;;;;;;;;;;;;;;;2114636;28;20060;-43
2023/01/07 02:07:26;;;;;;;8.27;3.88;;;;;;;;;;2114223;28;20032;-43
2023/01/07 02:08:27;;;;;;;9.40;3.83;;;;;;;;;;2114133;28;20052;-43
2023/01/07 02:09:28;;;;;;;9.47;4.17;;;;;;;;;;2114165;28;20506;-43
2023/01/07 02:10:30;;;;;;;9.88;4.93;;;;;;;;;;2114271;28;20097;-43
2023/01/07 02:11:34;;;;;;;11.00;4.20;;;;;;;;;;2113810;28;20084;-43
2023/01/07 02:12:43;;;;;;;9.13;4.47;;;;;;;;;;2114108;28;20040;-42
2023/01/07 02:13:50;;;;;;;10.52;4.35;;;;;;;;;;2114021;28;20495;-43
2023/01/07 02:15:02;;;;;;;12.32;4.20;;;;;;;;;;2114127;28;20047;-43
2023/01/07 02:16:10;;;;;;;11.77;4.05;;;;;;;;;;2113964;28;20523;-43
2023/01/07 02:17:15;;;;;;;11.80;4.07;;;;;;;;;;2113906;28;20048;-42
2023/01/07 02:18:22;;;;;;;9.60;3.90;;;;;;;;;;2113909;28;20040;-42
2023/01/07 02:19:38;;;;;;;12.80;4.82;;;;;;;;;;2113985;28;20052;-42
2023/01/07 02:20:46;;;;;;;9.40;4.40;;;;;;;;;;2109888;28;20040;-42
2023/01/07 02:21:50;;;;;;;7.30;4.13;;;;;;;;;;2113851;28;20048;-42
2023/01/07 02:23:11;;;;;;;7.45;3.75;;;;;;;;;;2114012;28;20167;-42
2023/01/07 02:24:30;;;;;;;8.63;4.20;;;;;;;;;;2113921;28;20092;-42
2023/01/07 02:25:45;;;;;;;10.63;4.28;;;;;;;;;;2114054;28;20048;-42
2023/01/07 02:26:57;;;;;;;11.73;4.95;;;;;;;;;;2109905;28;20499;-43
2023/01/07 02:28:04;;;;;;;11.13;4.72;;;;;;;;;;2113970;28;20040;-42
2023/01/07 02:29:18;;;;;;;9.18;4.70;;;;;;;;;;2113869;28;20044;-42
2023/01/07 02:30:37;;;;;;;10.48;4.43;;;;;;;;;;2113948;28;20044;-41
2023/01/07 02:32:05;;;;;;;10.52;5.20;;;;;;;;;;2113593;28;20035;-42
2023/01/07 02:33:16;;;;;;;17.00;6.22;;;;;;;;;;2087756;28;20041;-42
2023/01/07 02:34:18;;;;;;;14.10;4.43;;;;;;;;;;2107746;28;20043;-42
2023/01/07 02:35:26;;;;;;;8.52;4.20;;;;;;;;;;2113849;28;20104;-41
2023/01/07 02:36:41;;;;;;;10.32;4.47;;;;;;;;;;2113834;28;20104;-43
2023/01/07 02:37:46;;;;;;;9.80;4.97;;;;;;;;;;2113842;28;20428;-43
2023/01/07 02:38:58;;;;;;;11.52;4.95;;;;;;;;;;2113826;28;20118;-42
2023/01/07 02:40:03;;;;;;;13.48;5.43;;;;;;;;;;2113962;28;20036;-43
2023/01/07 02:41:07;;;;;;;13.18;4.93;;;;;;;;;;2113898;28;20043;-43
2023/01/07 02:42:12;;;;;;;10.93;5.03;;;;;;;;;;2113749;28;20464;-42
2023/01/07 02:43:17;;;;;;;11.02;4.60;;;;;;;;;;2114954;28;20047;-42
2023/01/07 02:44:24;;;;;;;13.32;4.95;;;;;;;;;;2115524;28;20039;-42
2023/01/07 02:45:27;;;;;;;12.30;4.82;;;;;;;;;;2115251;28;20055;-42
2023/01/07 02:46:30;;;;;;;8.80;4.30;;;;;;;;;;2115443;28;20050;-42
2023/01/07 02:47:35;;;;;;;9.50;4.70;;;;;;;;;;2115441;28;20044;-42
2023/01/07 02:48:37;;;;;;;14.55;4.15;;;;;;;;;;2115409;28;20051;-43
2023/01/07 02:49:38;;;;;;;12.23;5.38;;;;;;;;;;2115215;28;20044;-42
2023/01/07 02:50:39;;;;;;;11.75;4.93;;;;;;;;;;2115230;28;20043;-42
2023/01/07 02:51:41;;;;;;;11.43;5.37;;;;;;;;;;2115076;28;20046;-43
2023/01/07 02:52:42;;;;;;;11.68;5.38;;;;;;;;;;2115459;28;20044;-43
2023/01/07 02:53:45;;;;;;;10.63;5.23;;;;;;;;;;2115475;28;20044;-46
2023/01/07 02:54:49;;;;;;;12.00;5.13;;;;;;;;;;2115357;28;20050;-46
2023/01/07 02:55:57;;;;;;;12.23;5.80;;;;;;;;;;2115171;28;20485;-46
2023/01/07 02:57:10;;;;;;;9.85;4.45;;;;;;;;;;2115282;28;20040;-46
2023/01/07 02:58:26;;;;;;;11.35;5.15;;;;;;;;;;2115204;28;20040;-45
2023/01/07 02:59:41;;;;;;;12.60;4.93;;;;;;;;;;2115607;28;20054;-42
2023/01/07 03:01:01;;;;;;;14.32;5.63;;;;;;;;;;2102007;28;20043;-42
2023/01/07 03:02:20;;;;;;;9.98;4.75;;;;;;;;;;2115000;28;20044;-42
2023/01/07 03:03:41;;;;;;;10.82;4.60;;;;;;;;;;2115255;28;20054;-42
2023/01/07 03:04:52;;;;;;;9.05;4.88;;;;;;;;;;2115299;28;20043;-42
2023/01/07 03:06:00;;;;;;;11.43;5.10;;;;;;;;;;2115191;28;20051;-41
2023/01/07 03:07:10;;;;;;;12.43;4.93;;;;;;;;;;2115117;28;20519;-42
2023/01/07 03:08:32;;;;;;;9.60;5.13;;;;;;;;;;2115288;28;20058;-42
2023/01/07 03:09:40;;;;;;;13.75;4.90;;;;;;;;;;2108221;28;20036;-43
2023/01/07 03:10:44;;;;;;;12.25;4.47;;;;;;;;;;2115214;28;20396;-42
2023/01/07 03:11:48;;;;;;;10.40;4.88;;;;;;;;;;2115174;28;20055;-42
2023/01/07 03:12:51;;;;;;;10.27;4.57;;;;;;;;;;2115343;28;20050;-42
2023/01/07 03:13:57;;;;;;;11.10;4.88;;;;;;;;;;2115160;28;20043;-42
2023/01/07 03:15:01;;;;;;;9.50;4.60;;;;;;;;;;2115160;28;20044;-42
2023/01/07 03:16:04;;;;;;;9.50;4.95;;;;;;;;;;2115317;28;20094;-42
2023/01/07 03:17:08;;;;;;;11.40;5.57;;;;;;;;;;2115215;28;20048;-42
2023/01/07 03:18:10;;;;;;;13.27;5.15;;;;;;;;;;2115316;28;20043;-42
2023/01/07 03:19:14;;;;;;;15.52;6.38;;;;;;;;;;2115115;28;20050;-42
2023/01/07 03:20:18;;;;;;;16.25;6.45;;;;;;;;;;2115052;28;20409;-42
2023/01/07 03:21:20;;;;;;;15.65;6.13;;;;;;;;;;2115125;28;20046;-42
2023/01/07 03:22:23;;;;;;;11.50;5.13;;;;;;;;;;2114969;28;20051;-42
2023/01/07 03:23:25;;;;;;;12.43;5.68;;;;;;;;;;2115018;28;20048;-42
2023/01/07 03:24:27;;;;;;;14.43;5.03;;;;;;;;;;2115166;28;20062;-42
2023/01/07 03:25:29;;;;;;;12.05;5.90;;;;;;;;;;2115044;28;20404;-42
2023/01/07 03:26:31;;;;;;;14.02;5.55;;;;;;;;;;2114976;28;20404;-42
2023/01/07 03:27:34;;;;;;;11.70;5.30;;;;;;;;;;2114900;28;20083;-41
2023/01/07 03:28:39;;;;;;;11.65;4.97;;;;;;;;;;2115079;28;20414;-42
2023/01/07 03:29:40;;;;;;;15.52;5.93;;;;;;;;;;2115049;28;20047;-42
2023/01/07 03:30:42;;;;;;;8.50;4.45;;;;;;;;;;2115134;28;20096;-42
2023/01/07 03:31:52;;;;;;;11.85;4.95;;;;;;;;;;2114939;28;20100;-46
2023/01/07 03:32:58;;;;;;;10.63;4.88;;;;;;;;;;2114968;28;20043;-46
2023/01/07 03:34:00;;;;;;;10.35;4.88;;;;;;;;;;2115014;28;20051;-47
2023/01/07 03:35:02;;;;;;;9.45;4.95;;;;;;;;;;2115101;28;20047;-46
2023/01/07 03:36:05;;;;;;;12.05;5.32;;;;;;;;;;2115084;28;20431;-46
2023/01/07 03:37:08;;;;;;;11.93;5.78;;;;;;;;;;2114802;28;20050;-46
2023/01/07 03:38:09;;;;;;;13.40;5.25;;;;;;;;;;2114907;28;20147;-46
2023/01/07 03:39:11;;;;;;;10.35;5.45;;;;;;;;;;2114877;28;20044;-46
2023/01/07 03:40:12;;;;;;;12.85;5.72;;;;;;;;;;2114939;28;20066;-46
2023/01/07 03:42:38;;;;;;;12.13;5.40;;;;;;;;;;2114885;28;20051;-44
2023/01/07 03:42:41;;;;;;;14.38;6.40;;;;;;;;;;2115040;28;20287;-45
2023/01/07 03:43:42;;;;;;;9.73;4.95;;;;;;;;;;2114939;28;20044;-44
2023/01/07 03:44:42;;;;;;;11.40;5.70;;;;;;;;;;2115076;28;20181;-45
2023/01/07 03:45:44;;;;;;;10.38;5.93;;;;;;;;;;2114948;28;20043;-45
2023/01/07 03:46:45;;;;;;;10.25;5.50;;;;;;;;;;2115100;28;20054;-43
2023/01/07 03:47:47;;;;;;;10.37;5.00;;;;;;;;;;2114802;28;20066;-43
2023/01/07 03:48:48;;;;;;;11.35;5.53;;;;;;;;;;2115272;28;20287;-42
2023/01/07 03:49:49;;;;;;;11.80;4.82;;;;;;;;;;2114951;28;20051;-42
2023/01/07 03:50:50;;;;;;;12.27;5.47;;;;;;;;;;2114991;28;20055;-43
2023/01/07 03:51:53;;;;;;;17.02;6.30;;;;;;;;;;2114731;28;20382;-42
2023/01/07 03:52:54;;;;;;;14.00;5.85;;;;;;;;;;2114888;28;20058;-42
2023/01/07 03:53:55;;;;;;;10.85;5.57;;;;;;;;;;2114523;28;20207;-42
2023/01/07 03:54:56;;;;;;;14.67;6.13;;;;;;;;;;2115307;28;20310;-46
2023/01/07 03:55:57;;;;;;;11.70;5.75;;;;;;;;;;2114792;28;20137;-45
2023/01/07 03:56:58;;;;;;;12.60;6.30;;;;;;;;;;2114823;28;20044;-46
2023/01/07 03:58:00;;;;;;;13.05;6.60;;;;;;;;;;2114564;28;20688;-45
2023/01/07 03:59:01;;;;;;;15.15;6.63;;;;;;;;;;2114821;28;20052;-46
2023/01/07 04:00:03;;;;;;;14.52;5.93;;;;;;;;;;2114874;28;20065;-46
2023/01/07 04:01:04;;;;;;;12.18;6.13;;;;;;;;;;2114734;28;20056;-45
2023/01/07 04:02:05;;;;;;;15.10;6.05;;;;;;;;;;2114775;28;20051;-45
2023/01/07 04:03:06;;;;;;;16.75;5.57;;;;;;;;;;2114814;28;20048;-46
2023/01/07 04:04:08;;;;;;;11.77;4.70;;;;;;;;;;2115117;28;20043;-42
2023/01/07 04:05:09;;;;;;;11.98;5.30;;;;;;;;;;2114885;28;20096;-42
2023/01/07 04:06:10;;;;;;;13.23;5.80;;;;;;;;;;2114697;28;20039;-42
2023/01/07 04:07:12;;;;;;;10.40;5.28;;;;;;;;;;2115245;28;20047;-45
2023/01/07 04:08:13;;;;;;;12.23;5.22;;;;;;;;;;2114748;28;20404;-46
2023/01/07 04:09:17;;;;;;;13.75;5.78;;;;;;;;;;2114917;28;20147;-46
2023/01/07 04:10:19;;;;;;;11.05;4.78;;;;;;;;;;2114702;28;20044;-45
2023/01/07 04:11:20;;;;;;;;;;;;;;;;;;2115268;28;20071;-46
2023/01/07 04:12:21;;;;;;;8.93;4.88;;;;;;;;;;2114678;28;19931;-45
2023/01/07 04:13:22;;;;;;;18.48;5.20;;;;;;;;;;2114840;28;20051;-45
2023/01/07 04:14:23;;;;;;;11.48;5.57;;;;;;;;;;2114848;28;20048;-47
2023/01/07 04:15:24;;;;;;;13.45;4.80;;;;;;;;;;2114730;28;20047;-45
2023/01/07 04:16:25;;;;;;;11.38;5.00;;;;;;;;;;2114611;28;20048;-45
2023/01/07 04:17:27;;;;;;;12.55;5.97;;;;;;;;;;2114831;28;20117;-43
2023/01/07 04:18:27;;;;;;;11.10;4.72;;;;;;;;;;2114793;28;20050;-42
2023/01/07 04:19:29;;;;;;;11.10;5.27;;;;;;;;;;2114705;28;20499;-42
2023/01/07 04:20:29;;;;;;;10.10;5.32;;;;;;;;;;2114679;28;20065;-43
2023/01/07 04:21:31;;;;;;;11.07;5.47;;;;;;;;;;2114677;28;20043;-43
2023/01/07 04:22:32;;;;;;;12.70;5.47;;;;;;;;;;2114704;28;20040;-43
2023/01/07 04:23:34;;;;;;;11.88;5.47;;;;;;;;;;2114698;28;20051;-43
2023/01/07 04:24:34;;;;;;;10.55;5.05;;;;;;;;;;2114779;28;20116;-43
2023/01/07 04:25:36;;;;;;;13.53;4.93;;;;;;;;;;2114666;28;20052;-42
2023/01/07 04:26:37;;;;;;;14.88;5.70;;;;;;;;;;2114980;28;20043;-42
2023/01/07 04:27:39;;;;;;;10.50;5.47;;;;;;;;;;2114783;28;20040;-42
2023/01/07 04:28:40;;;;;;;11.93;4.68;;;;;;;;;;2114592;28;20035;-42
2023/01/07 04:29:41;;;;;;;11.03;5.40;;;;;;;;;;2114605;28;20048;-42
2023/01/07 04:30:42;;;;;;;14.27;5.88;;;;;;;;;;2114656;28;20476;-43
2023/01/07 04:31:43;;;;;;;12.63;4.80;;;;;;;;;;2114447;28;20484;-43
2023/01/07 04:32:44;;;;;;;12.50;4.97;;;;;;;;;;2114635;28;20035;-43
2023/01/07 04:33:45;;;;;;;13.35;5.63;;;;;;;;;;2114734;28;20464;-43
2023/01/07 04:34:46;;;;;;;12.60;5.40;;;;;;;;;;2114618;28;20051;-43
2023/01/07 04:35:47;;;;;;;10.43;4.85;;;;;;;;;;2114551;28;20403;-42
2023/01/07 04:36:48;;;;;;;18.00;5.50;;;;;;;;;;2114693;28;20062;-42
2023/01/07 04:37:50;;;;;;;14.68;5.68;;;;;;;;;;2114502;28;20044;-42
2023/01/07 04:38:51;;;;;;;11.45;5.93;;;;;;;;;;2114587;28;20051;-41
2023/01/07 04:39:52;;;;;;;11.65;5.57;;;;;;;;;;2114540;28;20039;-42
2023/01/07 04:40:53;;;;;;;15.53;6.50;;;;;;;;;;2114652;28;20047;-42
2023/01/07 04:41:54;;;;;;;13.20;5.50;;;;;;;;;;2114470;28;20043;-42
2023/01/07 04:42:55;;;;;;;13.00;5.77;;;;;;;;;;2114597;28;20065;-42
2023/01/07 04:43:56;;;;;;;12.45;6.13;;;;;;;;;;2114530;28;20043;-42
2023/01/07 04:44:57;;;;;;;13.30;5.43;;;;;;;;;;2114558;28;20074;-41
2023/01/07 04:45:58;;;;;;;12.05;5.28;;;;;;;;;;2114568;28;20048;-42
2023/01/07 04:47:00;;;;;;;13.77;6.27;;;;;;;;;;2114770;28;20127;-46
2023/01/07 04:48:01;;;;;;;12.45;5.35;;;;;;;;;;2114618;28;20051;-46
2023/01/07 04:49:02;;;;;;;10.65;5.38;;;;;;;;;;2114500;28;20046;-46
2023/01/07 04:50:03;;;;;;;14.68;6.47;;;;;;;;;;2114705;28;20047;-46
2023/01/07 04:51:04;;;;;;;15.32;6.22;;;;;;;;;;2114387;28;20047;-45
2023/01/07 04:52:05;;;;;;;13.80;6.15;;;;;;;;;;2114569;28;20059;-45
2023/01/07 04:53:07;;;;;;;13.50;5.63;;;;;;;;;;2114493;28;20052;-45
2023/01/07 04:54:08;;;;;;;;;;;;;;;;;;2114785;28;20101;-46
2023/01/07 04:55:10;;;;;;;11.18;5.65;;;;;;;;;;2114514;28;20599;-47
2023/01/07 04:56:11;;;;;;;14.93;6.28;;;;;;;;;;2114327;28;20385;-47
2023/01/07 04:57:12;;;;;;;10.15;5.63;;;;;;;;;;2114369;28;20051;-46
2023/01/07 04:58:13;;;;;;;12.15;5.60;;;;;;;;;;2114511;28;20481;-47
2023/01/07 04:59:14;;;;;;;12.38;6.38;;;;;;;;;;2114600;28;20055;-46
2023/01/07 05:00:15;;;;;;;15.10;6.10;;;;;;;;;;2114489;28;20416;-47
2023/01/07 05:01:16;;;;;;;12.70;5.70;;;;;;;;;;2114454;28;20047;-47
2023/01/07 05:02:17;;;;;;;13.05;5.38;;;;;;;;;;2114271;28;20052;-47
2023/01/07 05:03:19;;;;;;;11.40;5.55;;;;;;;;;;2114365;28;20050;-48
2023/01/07 05:04:19;;;;;;;13.52;5.97;;;;;;;;;;2114496;28;20052;-47
2023/01/07 05:05:21;;;;;;;14.20;5.97;;;;;;;;;;2113772;28;20056;-49
2023/01/07 05:06:22;;;;;;;13.68;5.10;;;;;;;;;;2114018;28;20043;-50
2023/01/07 05:07:23;;;;;;;14.60;6.63;;;;;;;;;;2114434;28;20139;-49
2023/01/07 05:08:25;;;;;;;14.20;6.30;;;;;;;;;;2114430;28;20055;-49
2023/01/07 05:09:26;;;;;;;14.32;6.13;;;;;;;;;;2114519;28;20040;-50
2023/01/07 05:10:27;;;;;;;14.33;6.33;;;;;;;;;;2114539;28;20047;-46
2023/01/07 05:11:28;;;;;;;15.57;5.88;;;;;;;;;;2114136;28;20284;-45
2023/01/07 05:12:32;;;;;;;14.63;5.43;;;;;;;;;;2114336;28;20496;-46
2023/01/07 05:13:34;;;;;;;20.05;6.13;;;;;;;;;;2114510;28;20066;-43
2023/01/07 05:14:35;;;;;;;12.63;5.65;;;;;;;;;;2114386;28;20051;-42
2023/01/07 05:15:36;;;;;;;14.45;6.07;;;;;;;;;;2114326;28;20044;-42
2023/01/07 05:16:37;;;;;;;14.47;6.53;;;;;;;;;;2114284;28;20051;-43
2023/01/07 05:17:38;;;;;;;16.80;7.20;;;;;;;;;;2114258;28;20424;-42
2023/01/07 05:18:39;;;;;;;16.27;6.97;;;;;;;;;;2114321;28;20044;-42
2023/01/07 05:19:40;;;;;;;10.40;5.07;;;;;;;;;;2114378;28;20043;-43
2023/01/07 05:20:42;;;;;;;13.13;6.53;;;;;;;;;;2114634;28;20040;-47
2023/01/07 05:21:43;;;;;;;14.80;6.03;;;;;;;;;;2114361;28;20050;-45
2023/01/07 05:22:45;;;;;;;12.27;6.38;;;;;;;;;;2114165;28;20042;-46
2023/01/07 05:23:47;;;;;;;12.73;6.50;;;;;;;;;;2114415;28;20051;-45
2023/01/07 05:24:47;;;;;;;11.10;6.07;;;;;;;;;;2114448;28;20525;-42
2023/01/07 05:25:49;;;;;;;13.57;6.03;;;;;;;;;;2114351;28;20047;-42
2023/01/07 05:26:50;;;;;;;13.23;5.93;;;;;;;;;;2114065;28;20044;-42
2023/01/07 05:27:51;;;;;;;9.87;5.57;;;;;;;;;;2114271;28;20083;-42
2023/01/07 05:28:52;;;;;;;12.10;5.80;;;;;;;;;;2114406;28;20485;-42
2023/01/07 05:29:53;;;;;;;15.20;6.40;;;;;;;;;;2114261;28;20044;-42
2023/01/07 05:30:54;;;;;;;12.07;6.03;;;;;;;;;;2114310;28;20097;-42
2023/01/07 05:31:55;;;;;;;11.88;6.47;;;;;;;;;;2114083;28;20139;-42
2023/01/07 05:32:56;;;;;;;10.63;5.55;;;;;;;;;;2114216;28;20039;-43
2023/01/07 05:33:57;;;;;;;10.70;5.10;;;;;;;;;;2114474;28;20131;-44
2023/01/07 05:34:58;;;;;;;11.52;6.18;;;;;;;;;;2114303;28;20076;-47
2023/01/07 05:35:59;;;;;;;12.38;5.80;;;;;;;;;;2114078;28;20514;-47
2023/01/07 05:37:00;;;;;;;12.77;5.97;;;;;;;;;;2114226;28;20070;-44
2023/01/07 05:38:01;;;;;;;13.23;6.33;;;;;;;;;;2114340;28;20238;-45
2023/01/07 05:39:03;;;;;;;14.00;5.57;;;;;;;;;;2114415;28;20116;-46
2023/01/07 05:40:05;;;;;;;13.48;6.30;;;;;;;;;;2114458;28;20047;-42
2023/01/07 05:41:07;;;;;;;13.30;6.18;;;;;;;;;;2114045;28;20078;-41
2023/01/07 05:42:08;;;;;;;11.73;5.40;;;;;;;;;;2114105;28;20051;-43
2023/01/07 05:43:09;;;;;;;12.65;5.95;;;;;;;;;;2114156;28;20148;-42
2023/01/07 05:44:10;;;;;;;13.18;5.70;;;;;;;;;;2114683;28;20528;-45
2023/01/07 05:45:11;;;;;;;13.68;6.35;;;;;;;;;;2114045;28;20047;-45
2023/01/07 05:46:13;;;;;;;11.55;5.78;;;;;;;;;;2114122;28;20605;-47
2023/01/07 05:47:13;;;;;;;14.05;6.60;;;;;;;;;;2114342;28;20065;-41
2023/01/07 05:48:15;;;;;;;10.35;5.63;;;;;;;;;;2114190;28;20051;-42
2023/01/07 05:49:16;;;;;;;12.52;5.63;;;;;;;;;;2114176;28;20052;-42
2023/01/07 05:50:17;;;;;;;13.77;6.10;;;;;;;;;;2114148;28;20044;-45
2023/01/07 05:51:18;;;;;;;12.18;6.45;;;;;;;;;;2113881;28;20051;-46
2023/01/07 05:52:19;;;;;;;13.17;5.83;;;;;;;;;;2114263;28;20139;-45
2023/01/07 05:53:20;;;;;;;13.20;5.38;;;;;;;;;;2114202;28;20043;-44
2023/01/07 05:54:22;;;;;;;12.40;5.93;;;;;;;;;;2114238;28;20123;-44
2023/01/07 05:55:23;;;;;;;10.98;4.97;;;;;;;;;;2114422;28;20075;-41
2023/01/07 05:56:24;;;;;;;12.27;6.07;;;;;;;;;;2114040;28;20044;-42
2023/01/07 05:57:25;;;;;;;13.52;5.55;;;;;;;;;;2114201;28;20447;-42
2023/01/07 05:58:26;;;;;;;16.08;5.93;;;;;;;;;;2114334;28;20132;-42
2023/01/07 05:59:27;;;;;;;12.13;5.63;;;;;;;;;;2114145;28;20104;-41
2023/01/07 06:00:28;;;;;;;12.57;5.80;;;;;;;;;;2114050;28;20618;-42
2023/01/07 06:01:29;;;;;;;9.98;4.78;;;;;;;;;;2113956;28;20433;-42
2023/01/07 06:02:30;;;;;;;11.82;5.55;;;;;;;;;;2114110;28;20058;-44
2023/01/07 06:03:31;;;;;;;11.63;5.10;;;;;;;;;;2114345;28;20043;-48
2023/01/07 06:04:33;;;;;;;14.65;5.90;;;;;;;;;;2114166;28;20047;-46
2023/01/07 06:05:34;;;;;;;14.50;5.97;;;;;;;;;;2114374;28;20165;-46
2023/01/07 06:06:35;;;;;;;11.55;5.85;;;;;;;;;;2114188;28;20063;-46
2023/01/07 06:07:36;;;;;;;13.75;5.18;;;;;;;;;;2113976;28;20051;-47
2023/01/07 06:08:38;;;;;;;11.60;4.90;;;;;;;;;;2114112;28;20043;-47
2023/01/07 06:09:40;;;;;;;11.20;5.05;;;;;;;;;;2114262;28;20047;-43
2023/01/07 06:10:41;;;;;;;;;;;;;;;;;;2114620;28;20044;-42
2023/01/07 06:11:42;;;;;;;14.32;5.43;;;;;;;;;;2114068;28;19920;-43
2023/01/07 06:12:43;;;;;;;13.10;6.05;;;;;;;;;;2113979;28;20046;-43
2023/01/07 06:13:44;;;;;;;14.55;6.05;;;;;;;;;;2113920;28;20403;-42
2023/01/07 06:14:45;;;;;;;14.18;6.00;;;;;;;;;;2114098;28;20135;-42
2023/01/07 06:15:46;;;;;;;14.20;6.38;;;;;;;;;;2114018;28;20468;-42